CGUJS CYXU-CYQS
Flight info
| Callsign | CGUJS |
|---|---|
| Flight time | 0h 13m |
| Altitude | 3500 |
| Route | CYXU/CYQS |
| Aircraft | C172/L-VGD/A |
Departure
| Time | 2026-04-27 01:38 |
|---|---|
| Airport | London International Airport (CYXU) |
Arrival
| Time | 2026-04-27 01:52 |
|---|---|
| Airport | St Thomas Municipal Airport (CYQS) |
| Time | Latitude | Longitude | Altitude | Speed | Heading |
|---|---|---|---|---|---|
| 2026-04-27 01:24 | 43.03576 | -81.16196 | 904 ft | 0 kts | 79° |
| 2026-04-27 01:30 | 43.03576 | -81.16192 | 904 ft | 3 kts | 73° |
| 2026-04-27 01:30 | 43.03636 | -81.16134 | 903 ft | 15 kts | 34° |
| 2026-04-27 01:30 | 43.03664 | -81.16005 | 902 ft | 15 kts | 79° |
| 2026-04-27 01:31 | 43.03684 | -81.15860 | 900 ft | 17 kts | 78° |
| 2026-04-27 01:31 | 43.03727 | -81.15734 | 898 ft | 14 kts | 358° |
| 2026-04-27 01:31 | 43.03804 | -81.15808 | 899 ft | 17 kts | 321° |
| 2026-04-27 01:31 | 43.03923 | -81.15955 | 901 ft | 29 kts | 320° |
| 2026-04-27 01:32 | 43.03989 | -81.16024 | 904 ft | 0 kts | 359° |
| 2026-04-27 01:33 | 43.04010 | -81.16021 | 905 ft | 9 kts | 7° |
| 2026-04-27 01:34 | 43.04053 | -81.16015 | 907 ft | 0 kts | 7° |
| 2026-04-27 01:35 | 43.04058 | -81.16013 | 907 ft | 0 kts | 10° |
| 2026-04-27 01:37 | 43.04100 | -81.15996 | 908 ft | 17 kts | 29° |
| 2026-04-27 01:37 | 43.04095 | -81.15830 | 905 ft | 32 kts | 143° |
| 2026-04-27 01:37 | 43.03782 | -81.15478 | 925 ft | 80 kts | 139° |
| 2026-04-27 01:38 | 43.03288 | -81.14959 | 1043 ft | 97 kts | 139° |
| 2026-04-27 01:38 | 43.02740 | -81.14358 | 1221 ft | 105 kts | 138° |
| 2026-04-27 01:38 | 43.02198 | -81.13798 | 1567 ft | 92 kts | 139° |
| 2026-04-27 01:38 | 43.01671 | -81.13265 | 1757 ft | 94 kts | 140° |
| 2026-04-27 01:39 | 43.01127 | -81.12776 | 1983 ft | 93 kts | 141° |
| 2026-04-27 01:39 | 43.00586 | -81.12311 | 2179 ft | 95 kts | 142° |
| 2026-04-27 01:39 | 43.00006 | -81.11857 | 2458 ft | 92 kts | 145° |
| 2026-04-27 01:39 | 42.99439 | -81.11434 | 2622 ft | 98 kts | 146° |
| 2026-04-27 01:40 | 42.98747 | -81.11317 | 2902 ft | 110 kts | 190° |
| 2026-04-27 01:40 | 42.98034 | -81.11657 | 3095 ft | 108 kts | 195° |
| 2026-04-27 01:40 | 42.97331 | -81.12080 | 3311 ft | 112 kts | 199° |
| 2026-04-27 01:40 | 42.96656 | -81.12466 | 3575 ft | 106 kts | 192° |
| 2026-04-27 01:41 | 42.95919 | -81.12765 | 3655 ft | 112 kts | 188° |
| 2026-04-27 01:41 | 42.95136 | -81.13067 | 3770 ft | 120 kts | 189° |
| 2026-04-27 01:41 | 42.94311 | -81.13327 | 3778 ft | 124 kts | 185° |
| 2026-04-27 01:41 | 42.93438 | -81.13490 | 3743 ft | 130 kts | 177° |
| 2026-04-27 01:42 | 42.92605 | -81.13547 | 3790 ft | 111 kts | 176° |
| 2026-04-27 01:42 | 42.91866 | -81.13602 | 3664 ft | 107 kts | 176° |
| 2026-04-27 01:42 | 42.91118 | -81.13652 | 3580 ft | 104 kts | 175° |
| 2026-04-27 01:42 | 42.90400 | -81.13718 | 3537 ft | 100 kts | 176° |
| 2026-04-27 01:43 | 42.89708 | -81.13764 | 3561 ft | 99 kts | 175° |
| 2026-04-27 01:43 | 42.89021 | -81.13802 | 3606 ft | 97 kts | 175° |
| 2026-04-27 01:43 | 42.88342 | -81.13845 | 3503 ft | 99 kts | 175° |
| 2026-04-27 01:43 | 42.87658 | -81.13870 | 3431 ft | 98 kts | 173° |
| 2026-04-27 01:44 | 42.86976 | -81.13863 | 3376 ft | 95 kts | 171° |
| 2026-04-27 01:44 | 42.86307 | -81.13860 | 3361 ft | 97 kts | 172° |
| 2026-04-27 01:44 | 42.85638 | -81.13850 | 3383 ft | 95 kts | 171° |
| 2026-04-27 01:44 | 42.84968 | -81.13820 | 3378 ft | 97 kts | 172° |
| 2026-04-27 01:45 | 42.84319 | -81.13805 | 3461 ft | 95 kts | 170° |
| 2026-04-27 01:45 | 42.83662 | -81.13779 | 3485 ft | 93 kts | 170° |
| 2026-04-27 01:45 | 42.82982 | -81.13713 | 3324 ft | 103 kts | 167° |
| 2026-04-27 01:45 | 42.82255 | -81.13585 | 3332 ft | 104 kts | 159° |
| 2026-04-27 01:46 | 42.81590 | -81.13266 | 3254 ft | 92 kts | 152° |
| 2026-04-27 01:46 | 42.80985 | -81.12993 | 3002 ft | 98 kts | 155° |
| 2026-04-27 01:46 | 42.80303 | -81.12729 | 2748 ft | 102 kts | 159° |
| 2026-04-27 01:46 | 42.79622 | -81.12572 | 2710 ft | 96 kts | 164° |
| 2026-04-27 01:47 | 42.78968 | -81.12446 | 2584 ft | 98 kts | 162° |
| 2026-04-27 01:47 | 42.78300 | -81.12313 | 2489 ft | 96 kts | 163° |
| 2026-04-27 01:47 | 42.77854 | -81.12249 | 2390 ft | 97 kts | 166° |
| 2026-04-27 01:47 | 42.77205 | -81.12158 | 2335 ft | 89 kts | 163° |
| 2026-04-27 01:48 | 42.76602 | -81.11962 | 2176 ft | 89 kts | 143° |
| 2026-04-27 01:48 | 42.76141 | -81.11397 | 2125 ft | 84 kts | 115° |
| 2026-04-27 01:48 | 42.75992 | -81.10665 | 1998 ft | 81 kts | 91° |
| 2026-04-27 01:48 | 42.75990 | -81.09923 | 1858 ft | 78 kts | 80° |
| 2026-04-27 01:49 | 42.76282 | -81.09410 | 1814 ft | 72 kts | 26° |
| 2026-04-27 01:49 | 42.76803 | -81.09545 | 1752 ft | 82 kts | 353° |
| 2026-04-27 01:49 | 42.77381 | -81.09849 | 1607 ft | 93 kts | 347° |
| 2026-04-27 01:49 | 42.77942 | -81.10291 | 1581 ft | 96 kts | 319° |
| 2026-04-27 01:50 | 42.78295 | -81.11058 | 1582 ft | 94 kts | 300° |
| 2026-04-27 01:50 | 42.78469 | -81.11908 | 1699 ft | 99 kts | 279° |
| 2026-04-27 01:50 | 42.78583 | -81.12864 | 1715 ft | 103 kts | 283° |
| 2026-04-27 01:50 | 42.78492 | -81.13760 | 1733 ft | 96 kts | 230° |
| 2026-04-27 01:51 | 42.77915 | -81.14190 | 1577 ft | 94 kts | 175° |
| 2026-04-27 01:51 | 42.77342 | -81.14031 | 1451 ft | 80 kts | 139° |
| 2026-04-27 01:51 | 42.77123 | -81.13411 | 1181 ft | 75 kts | 95° |
| 2026-04-27 01:51 | 42.77172 | -81.12737 | 975 ft | 69 kts | 86° |
| 2026-04-27 01:52 | 42.77228 | -81.12141 | 825 ft | 56 kts | 90° |
| 2026-04-27 01:52 | 42.77253 | -81.11701 | 778 ft | 34 kts | 88° |
| 2026-04-27 01:52 | 42.77271 | -81.11393 | 779 ft | 49 kts | 85° |
| 2026-04-27 01:52 | 42.77327 | -81.10775 | 843 ft | 79 kts | 83° |
| 2026-04-27 01:53 | 42.77402 | -81.10013 | 1073 ft | 82 kts | 83° |
| 2026-04-27 01:53 | 42.77567 | -81.09274 | 1253 ft | 83 kts | 53° |
| 2026-04-27 01:53 | 42.78080 | -81.09050 | 1559 ft | 83 kts | 355° |
| 2026-04-27 01:53 | 42.78496 | -81.09654 | 1801 ft | 101 kts | 285° |
| 2026-04-27 01:54 | 42.78477 | -81.10653 | 1922 ft | 110 kts | 265° |
| 2026-04-27 01:54 | 42.78424 | -81.11688 | 1917 ft | 112 kts | 264° |
| 2026-04-27 01:54 | 42.78323 | -81.12695 | 1831 ft | 100 kts | 260° |
| 2026-04-27 01:54 | 42.78082 | -81.13502 | 1712 ft | 90 kts | 262° |
| 2026-04-27 01:55 | 42.78005 | -81.14309 | 1581 ft | 84 kts | 232° |
| 2026-04-27 01:55 | 42.77530 | -81.14637 | 1364 ft | 77 kts | 172° |
| 2026-04-27 01:55 | 42.77210 | -81.14250 | 1179 ft | 64 kts | 101° |
| 2026-04-27 01:55 | 42.77159 | -81.13674 | 969 ft | 59 kts | 92° |
| 2026-04-27 01:56 | 42.77208 | -81.12469 | 885 ft | 77 kts | 88° |
| 2026-04-27 01:56 | 42.77238 | -81.11818 | 793 ft | 59 kts | 87° |
| 2026-04-27 01:56 | 42.77269 | -81.11402 | 779 ft | 35 kts | 84° |
| 2026-04-27 01:57 | 42.77309 | -81.10858 | 803 ft | 77 kts | 85° |
| 2026-04-27 01:57 | 42.77362 | -81.10042 | 930 ft | 94 kts | 85° |
| 2026-04-27 01:57 | 42.77700 | -81.09364 | 1255 ft | 89 kts | 20° |
| 2026-04-27 01:57 | 42.78194 | -81.09753 | 1581 ft | 95 kts | 292° |
| 2026-04-27 01:58 | 42.78283 | -81.10703 | 1759 ft | 110 kts | 275° |
| 2026-04-27 01:58 | 42.78439 | -81.11747 | 1926 ft | 116 kts | 301° |
| 2026-04-27 01:58 | 42.79021 | -81.12449 | 2066 ft | 113 kts | 351° |
| 2026-04-27 01:58 | 42.79722 | -81.12657 | 2445 ft | 97 kts | 359° |
| 2026-04-27 01:59 | 42.80386 | -81.12813 | 2730 ft | 94 kts | 358° |
| 2026-04-27 01:59 | 42.81031 | -81.12902 | 2886 ft | 94 kts | 12° |
| 2026-04-27 01:59 | 42.81627 | -81.12856 | 3204 ft | 77 kts | 14° |
| 2026-04-27 01:59 | 42.82193 | -81.12811 | 3390 ft | 81 kts | 13° |
| 2026-04-27 02:00 | 42.82759 | -81.12742 | 3553 ft | 86 kts | 14° |